createdAt,value
2023-01-23T00:00:30.502Z,4.50
2023-01-23T00:02:55.356Z,4.50
2023-01-23T00:05:21.504Z,4.50
2023-01-23T00:07:46.037Z,4.60
2023-01-23T00:10:13.475Z,4.50
2023-01-23T00:12:38.016Z,4.40
2023-01-23T00:15:02.695Z,4.40
2023-01-23T00:17:28.484Z,4.40
2023-01-23T00:19:55.152Z,4.40
2023-01-23T00:22:21.218Z,4.30
2023-01-23T00:24:45.780Z,4.30
2023-01-23T00:27:10.351Z,4.30
2023-01-23T00:29:35.175Z,4.20
2023-01-23T00:32:00.045Z,4.20
2023-01-23T00:34:25.255Z,4.30
2023-01-23T00:36:50.636Z,4.30
2023-01-23T00:39:19.964Z,4.20
2023-01-23T00:41:44.696Z,4.20
2023-01-23T00:44:09.506Z,4.20
2023-01-23T00:46:35.112Z,4.20
2023-01-23T00:50:12.786Z,4.20
2023-01-23T00:52:37.715Z,4.20
2023-01-23T00:55:04.275Z,4.20
2023-01-23T00:57:30.658Z,4.20
2023-01-23T00:59:55.479Z,4.30
2023-01-23T01:02:20.339Z,4.30
2023-01-23T01:04:45.526Z,4.30
2023-01-23T01:07:10.180Z,4.30
2023-01-23T01:09:35.033Z,4.30
2023-01-23T01:12:01.257Z,4.30
2023-01-23T01:14:25.862Z,4.20
2023-01-23T01:16:50.690Z,4.20
2023-01-23T01:19:16.637Z,4.10
2023-01-23T01:21:42.386Z,4.10
2023-01-23T01:24:07.901Z,4.10
2023-01-23T01:26:32.668Z,4.00
2023-01-23T01:28:58.749Z,4.00
2023-01-23T01:31:23.643Z,4.00
2023-01-23T01:33:48.376Z,4.00
2023-01-23T01:36:14.126Z,4.00
2023-01-23T01:38:38.713Z,4.00
2023-01-23T01:41:03.383Z,4.00
2023-01-23T01:43:28.985Z,4.10
2023-01-23T01:46:09.089Z,4.00
2023-01-23T01:48:37.241Z,4.00
2023-01-23T01:51:03.683Z,4.00
2023-01-23T01:53:30.629Z,4.00
2023-01-23T01:55:55.810Z,4.00
2023-01-23T01:58:21.216Z,4.00
2023-01-23T02:00:46.151Z,3.90
2023-01-23T02:03:12.675Z,3.90
2023-01-23T02:05:42.852Z,3.90
2023-01-23T02:08:14.857Z,3.90
2023-01-23T02:10:42.120Z,3.90
2023-01-23T02:13:24.910Z,3.90
2023-01-23T02:15:50.362Z,3.90
2023-01-23T02:18:17.008Z,3.90
2023-01-23T02:20:41.658Z,3.90
2023-01-23T02:23:12.927Z,3.90
2023-01-23T02:25:43.004Z,3.90
2023-01-23T02:28:11.240Z,3.90
2023-01-23T02:30:37.463Z,3.90
2023-01-23T02:33:10.843Z,4.00
2023-01-23T02:35:35.769Z,4.00
2023-01-23T02:38:08.159Z,4.00
2023-01-23T02:40:34.106Z,4.00
2023-01-23T02:43:00.386Z,3.90
2023-01-23T02:45:27.688Z,3.90
2023-01-23T02:47:52.218Z,3.90
2023-01-23T02:50:19.555Z,3.90
2023-01-23T02:52:44.463Z,3.90
2023-01-23T02:55:09.835Z,4.00
2023-01-23T02:57:34.968Z,3.90
2023-01-23T03:00:16.644Z,3.90
2023-01-23T03:02:43.565Z,3.90
2023-01-23T03:05:09.041Z,3.90
2023-01-23T03:07:34.068Z,3.90
2023-01-23T03:09:58.663Z,3.90
2023-01-23T03:12:23.763Z,3.90
2023-01-23T03:14:53.890Z,3.80
2023-01-23T03:17:18.931Z,3.80
2023-01-23T03:19:45.383Z,3.80
2023-01-23T03:22:10.058Z,3.70
2023-01-23T03:24:36.892Z,3.70
2023-01-23T03:27:01.694Z,3.70
2023-01-23T03:29:56.609Z,3.70
2023-01-23T03:32:22.657Z,3.70
2023-01-23T03:34:49.024Z,3.60
2023-01-23T03:37:15.299Z,3.60
2023-01-23T03:40:00.110Z,3.60
2023-01-23T03:42:24.837Z,3.60
2023-01-23T03:44:52.551Z,3.60
2023-01-23T03:47:20.878Z,3.60
2023-01-23T03:49:45.674Z,3.70
2023-01-23T03:52:12.573Z,3.60
2023-01-23T03:54:37.437Z,3.50
2023-01-23T03:57:06.841Z,3.50
2023-01-23T03:59:51.797Z,3.50
2023-01-23T04:02:19.530Z,3.40
2023-01-23T04:04:44.114Z,3.40
2023-01-23T04:07:10.067Z,3.50
2023-01-23T04:09:38.594Z,3.40
2023-01-23T04:12:04.734Z,3.40
2023-01-23T04:14:37.209Z,3.40
2023-01-23T04:17:02.321Z,3.40
2023-01-23T04:19:26.980Z,3.40
2023-01-23T04:21:51.740Z,3.30
2023-01-23T04:24:17.413Z,3.20
2023-01-23T04:26:43.888Z,3.20
2023-01-23T04:29:09.078Z,3.20
2023-01-23T04:31:34.408Z,3.10
2023-01-23T04:33:59.615Z,3.10
2023-01-23T04:36:25.487Z,3.10
2023-01-23T04:38:50.879Z,3.10
2023-01-23T04:41:22.143Z,3.10
2023-01-23T04:43:50.005Z,3.10
2023-01-23T04:46:14.783Z,3.10
2023-01-23T04:48:53.574Z,3.10
2023-01-23T04:51:20.489Z,3.00
2023-01-23T04:53:45.291Z,3.10
2023-01-23T04:56:10.076Z,3.00
2023-01-23T04:58:34.644Z,2.90
2023-01-23T05:01:08.455Z,2.90
2023-01-23T05:03:35.495Z,3.00
2023-01-23T05:06:01.022Z,3.00
2023-01-23T05:08:25.968Z,3.00
2023-01-23T05:11:04.368Z,2.90
2023-01-23T05:13:30.455Z,3.00
2023-01-23T05:15:55.100Z,3.00
2023-01-23T05:18:21.797Z,3.00
2023-01-23T05:20:46.502Z,3.00
2023-01-23T05:23:11.757Z,3.00
2023-01-23T05:25:51.718Z,3.00
2023-01-23T05:28:18.376Z,3.00
2023-01-23T05:30:49.313Z,3.00
2023-01-23T05:33:32.388Z,2.90
2023-01-23T05:36:00.689Z,2.90
2023-01-23T05:38:25.196Z,2.90
2023-01-23T05:40:51.062Z,3.00
2023-01-23T05:43:38.862Z,3.00
2023-01-23T05:46:23.036Z,2.90
2023-01-23T05:48:52.710Z,2.90
2023-01-23T05:51:18.777Z,2.90
2023-01-23T05:53:43.723Z,2.80
2023-01-23T05:56:09.415Z,2.80
2023-01-23T05:58:43.858Z,2.70
2023-01-23T06:01:19.566Z,2.70
2023-01-23T06:03:57.877Z,2.70
2023-01-23T06:06:34.572Z,2.60
2023-01-23T06:09:00.820Z,2.60
2023-01-23T06:11:25.367Z,2.50
2023-01-23T06:13:49.966Z,2.30
2023-01-23T06:16:15.002Z,2.30
2023-01-23T06:18:39.774Z,2.30
2023-01-23T06:21:07.707Z,2.30
2023-01-23T06:23:34.503Z,2.30
2023-01-23T06:26:02.411Z,2.30
2023-01-23T06:28:27.889Z,2.40
2023-01-23T06:30:52.533Z,2.30
2023-01-23T06:33:28.304Z,2.30
2023-01-23T06:35:59.108Z,2.20
2023-01-23T06:38:24.985Z,2.20
2023-01-23T06:40:50.098Z,2.10
2023-01-23T06:43:28.043Z,2.20
2023-01-23T06:45:53.367Z,2.20
2023-01-23T06:48:18.497Z,2.30
2023-01-23T06:50:44.693Z,2.20
2023-01-23T06:53:14.253Z,2.20
2023-01-23T06:55:41.021Z,2.10
2023-01-23T06:58:06.117Z,2.10
2023-01-23T07:00:31.212Z,2.00
2023-01-23T07:03:00.689Z,2.00
2023-01-23T07:05:25.396Z,2.00
2023-01-23T07:07:49.878Z,1.90
2023-01-23T07:10:14.803Z,1.90
2023-01-23T07:12:41.716Z,1.90
2023-01-23T07:15:09.039Z,2.00
2023-01-23T07:17:37.497Z,2.00
2023-01-23T07:20:02.520Z,2.00
2023-01-23T07:22:30.845Z,1.90
2023-01-23T07:24:55.583Z,1.90
2023-01-23T07:27:20.300Z,2.00
2023-01-23T07:29:46.718Z,1.90
2023-01-23T07:32:11.493Z,2.00
2023-01-23T07:34:36.184Z,2.00
2023-01-23T07:37:01.604Z,2.00
2023-01-23T07:39:26.492Z,2.00
2023-01-23T07:41:51.420Z,2.00
2023-01-23T07:44:18.859Z,2.00
2023-01-23T07:46:45.896Z,2.00
2023-01-23T07:49:10.946Z,2.20
2023-01-23T07:51:48.022Z,2.00
2023-01-23T07:54:13.123Z,2.10
2023-01-23T07:56:38.266Z,2.10
2023-01-23T07:59:02.925Z,2.10
2023-01-23T08:01:28.186Z,2.10
2023-01-23T08:03:55.282Z,2.20
2023-01-23T08:06:20.000Z,2.20
2023-01-23T08:08:44.904Z,2.10
2023-01-23T08:11:12.042Z,2.00
2023-01-23T08:13:36.989Z,2.10
2023-01-23T08:16:02.162Z,2.20
2023-01-23T08:18:27.155Z,2.20
2023-01-23T08:20:57.314Z,2.20
2023-01-23T08:23:25.333Z,2.20
2023-01-23T08:25:54.591Z,2.20
2023-01-23T08:28:19.464Z,2.10
2023-01-23T08:30:43.943Z,2.10
2023-01-23T08:33:08.535Z,2.20
2023-01-23T08:35:33.086Z,2.20
2023-01-23T08:37:59.068Z,2.20
2023-01-23T08:40:23.502Z,2.20
2023-01-23T08:42:48.034Z,2.10
2023-01-23T08:45:12.785Z,2.00
2023-01-23T08:47:38.196Z,2.10
2023-01-23T08:50:02.561Z,2.10
2023-01-23T08:52:27.281Z,2.10
2023-01-23T08:54:53.111Z,2.20
2023-01-23T08:57:17.490Z,2.10
2023-01-23T08:59:42.783Z,2.00
2023-01-23T09:02:07.408Z,2.00
2023-01-23T09:04:32.443Z,2.00
2023-01-23T09:06:57.479Z,2.00
2023-01-23T09:09:22.917Z,2.00
2023-01-23T09:11:49.159Z,2.00
2023-01-23T09:14:15.518Z,2.00
2023-01-23T09:16:41.404Z,2.20
2023-01-23T09:19:06.189Z,2.10
2023-01-23T09:21:30.898Z,2.10
2023-01-23T09:23:55.808Z,2.00
2023-01-23T09:26:21.137Z,2.00
2023-01-23T09:28:47.216Z,2.10
2023-01-23T09:31:14.219Z,2.10
2023-01-23T09:33:39.740Z,2.10
2023-01-23T09:36:04.292Z,2.20
2023-01-23T09:38:30.779Z,2.20
2023-01-23T09:40:58.585Z,2.30
2023-01-23T09:43:26.738Z,2.30
2023-01-23T09:46:04.807Z,2.30
2023-01-23T09:48:33.734Z,2.30
2023-01-23T09:51:03.426Z,2.30
2023-01-23T09:53:35.416Z,2.30
2023-01-23T09:56:06.092Z,2.30
2023-01-23T09:58:37.549Z,2.20
2023-01-23T10:01:05.303Z,2.20
2023-01-23T10:03:33.292Z,2.30
2023-01-23T10:06:11.282Z,2.20
2023-01-23T10:08:47.753Z,2.30
2023-01-23T10:11:20.627Z,2.20
2023-01-23T10:13:56.229Z,2.20
2023-01-23T10:16:45.005Z,2.10
2023-01-23T10:19:24.802Z,2.20
2023-01-23T10:21:57.045Z,2.30
2023-01-23T10:24:40.778Z,2.30
2023-01-23T10:27:18.620Z,2.30
2023-01-23T10:29:48.904Z,2.20
2023-01-23T10:32:25.024Z,2.20
2023-01-23T10:34:58.999Z,2.30
2023-01-23T10:37:34.511Z,2.30
2023-01-23T10:40:04.128Z,2.30
2023-01-23T10:42:29.460Z,2.30
2023-01-23T10:44:54.388Z,2.30
2023-01-23T10:47:27.965Z,2.30
2023-01-23T10:49:54.612Z,2.40
2023-01-23T10:52:37.786Z,2.60
2023-01-23T10:55:06.767Z,2.40
2023-01-23T10:57:38.161Z,2.30
2023-01-23T11:00:08.437Z,2.30
2023-01-23T11:02:35.505Z,2.40
2023-01-23T11:05:00.784Z,2.50
2023-01-23T11:07:27.422Z,2.50
2023-01-23T11:09:57.921Z,2.50
2023-01-23T11:12:24.471Z,2.30
2023-01-23T11:14:49.906Z,2.30
2023-01-23T11:17:21.740Z,2.30
2023-01-23T11:19:50.232Z,2.20
2023-01-23T11:22:32.562Z,2.20
2023-01-23T11:25:00.254Z,2.20
2023-01-23T11:27:28.135Z,2.20
2023-01-23T11:30:17.002Z,2.30
2023-01-23T11:32:49.044Z,2.30
2023-01-23T11:35:19.239Z,2.30
2023-01-23T11:37:44.236Z,2.30
2023-01-23T11:40:15.144Z,2.10
2023-01-23T11:42:42.153Z,2.10
2023-01-23T11:45:15.894Z,2.00
2023-01-23T11:48:09.212Z,2.00
2023-01-23T11:50:55.310Z,2.10
2023-01-23T11:53:36.761Z,2.00
2023-01-23T11:56:37.291Z,2.10
2023-01-23T11:59:21.845Z,2.20
2023-01-23T12:02:03.376Z,2.10
2023-01-23T12:04:45.711Z,2.10
2023-01-23T12:07:21.294Z,2.00
2023-01-23T12:09:58.112Z,1.90
2023-01-23T12:12:34.091Z,2.00
2023-01-23T12:15:07.317Z,1.90
2023-01-23T12:17:41.699Z,2.00
2023-01-23T12:20:31.570Z,2.10
2023-01-23T12:23:20.630Z,2.10
2023-01-23T12:25:53.206Z,2.00
2023-01-23T12:28:33.304Z,2.00
2023-01-23T12:31:08.463Z,2.00
2023-01-23T12:33:52.835Z,2.10
2023-01-23T12:37:11.728Z,2.00
2023-01-23T12:39:59.496Z,2.00
2023-01-23T12:42:27.969Z,2.10
2023-01-23T12:45:04.952Z,2.10
2023-01-23T12:47:35.434Z,2.00
2023-01-23T12:50:04.524Z,1.90
2023-01-23T12:52:35.170Z,1.90
2023-01-23T12:55:07.338Z,2.00
2023-01-23T12:57:59.425Z,2.00
2023-01-23T13:00:38.402Z,1.90
2023-01-23T13:03:25.881Z,1.90
2023-01-23T13:06:04.852Z,1.90
2023-01-23T13:08:40.347Z,1.90
2023-01-23T13:11:37.671Z,1.90
2023-01-23T13:14:02.263Z,1.90
2023-01-23T13:16:30.910Z,1.90
2023-01-23T13:19:14.216Z,1.90
2023-01-23T13:21:56.091Z,1.90
2023-01-23T13:24:55.387Z,1.90
2023-01-23T13:27:47.339Z,1.90
2023-01-23T13:30:43.513Z,2.00
2023-01-23T13:34:03.528Z,1.80
2023-01-23T13:36:37.723Z,1.70
2023-01-23T13:39:25.676Z,1.70
2023-01-23T13:41:52.051Z,1.70
2023-01-23T13:44:35.822Z,1.70
2023-01-23T14:21:41.091Z,1.70
2023-01-23T14:24:23.387Z,1.70
2023-01-23T14:26:51.347Z,1.60
2023-01-23T14:29:27.225Z,1.70
2023-01-23T14:31:52.551Z,1.70
2023-01-23T14:34:19.195Z,1.60
2023-01-23T14:36:47.383Z,1.60
2023-01-23T14:39:18.564Z,1.60
2023-01-23T14:41:44.896Z,1.60
2023-01-23T14:44:18.753Z,1.60
2023-01-23T14:46:46.781Z,1.60
2023-01-23T14:49:12.392Z,1.60
2023-01-23T14:51:37.846Z,1.60
2023-01-23T14:54:06.494Z,1.60
2023-01-23T14:56:36.875Z,1.70
2023-01-23T14:59:04.578Z,1.80
2023-01-23T15:01:30.588Z,1.70
2023-01-23T15:04:03.202Z,1.70
2023-01-23T15:06:29.220Z,1.70
2023-01-23T15:08:54.229Z,1.80
2023-01-23T15:11:26.477Z,1.80
2023-01-23T15:13:56.320Z,1.70
2023-01-23T15:16:22.772Z,1.60
2023-01-23T15:18:57.801Z,1.60
2023-01-23T15:21:33.393Z,1.60
2023-01-23T15:24:07.579Z,1.70
2023-01-23T15:26:36.462Z,1.70
2023-01-23T15:29:03.872Z,1.70
2023-01-23T15:31:31.350Z,1.70
2023-01-23T15:33:57.699Z,1.70
2023-01-23T15:36:30.536Z,1.70
2023-01-23T15:38:58.643Z,1.70
2023-01-23T15:41:37.119Z,1.60
2023-01-23T15:44:01.888Z,1.60
2023-01-23T15:46:27.136Z,1.60
2023-01-23T15:48:52.143Z,1.60
2023-01-23T15:51:16.693Z,1.50
2023-01-23T15:53:41.573Z,1.50
2023-01-23T15:56:25.673Z,1.50
2023-01-23T15:58:50.785Z,1.60
2023-01-23T16:01:15.349Z,1.60
2023-01-23T16:03:40.786Z,1.60
2023-01-23T16:06:06.429Z,1.60
2023-01-23T16:08:31.141Z,1.60
2023-01-23T16:10:57.652Z,1.60
2023-01-23T16:13:23.773Z,1.60
2023-01-23T16:15:49.285Z,1.60
2023-01-23T16:18:14.514Z,1.60
2023-01-23T16:20:42.205Z,1.50
2023-01-23T16:23:15.428Z,1.40
2023-01-23T16:25:44.631Z,1.50
2023-01-23T16:28:14.313Z,1.50
2023-01-23T16:30:40.372Z,1.50
2023-01-23T16:33:05.312Z,1.60
2023-01-23T16:35:30.332Z,1.50
2023-01-23T16:37:55.383Z,1.40
2023-01-23T16:40:21.649Z,1.40
2023-01-23T16:42:48.729Z,1.40
2023-01-23T16:45:18.117Z,1.40
2023-01-23T16:47:44.052Z,1.50
2023-01-23T16:50:11.206Z,1.40
2023-01-23T16:52:36.652Z,1.30
2023-01-23T16:55:01.420Z,1.30
2023-01-23T16:57:26.530Z,1.30
2023-01-23T16:59:52.233Z,1.30
2023-01-23T17:02:21.744Z,1.30
2023-01-23T17:04:48.141Z,1.40
2023-01-23T17:07:15.621Z,1.30
2023-01-23T17:09:40.292Z,1.30
2023-01-23T17:12:05.009Z,1.30
2023-01-23T17:14:32.213Z,1.30
2023-01-23T17:17:03.030Z,1.30
2023-01-23T17:19:32.871Z,1.40
2023-01-23T17:22:06.513Z,1.40
2023-01-23T17:24:31.566Z,1.40
2023-01-23T17:26:56.154Z,1.40
2023-01-23T17:29:21.195Z,1.40
2023-01-23T17:31:45.886Z,1.50
2023-01-23T17:34:20.483Z,1.50
2023-01-23T17:36:45.243Z,1.40
2023-01-23T17:39:13.324Z,1.50
2023-01-23T17:41:37.852Z,1.40
2023-01-23T17:44:02.478Z,1.40
2023-01-23T17:46:29.626Z,1.40
2023-01-23T17:48:55.822Z,1.50
2023-01-23T17:51:21.112Z,1.60
2023-01-23T17:53:46.132Z,1.60
2023-01-23T17:56:12.452Z,1.50
2023-01-23T17:58:38.895Z,1.50
2023-01-23T18:01:03.604Z,1.40
2023-01-23T18:03:28.299Z,1.20
2023-01-23T18:05:53.130Z,1.20
2023-01-23T18:08:18.805Z,1.20
2023-01-23T18:10:45.166Z,1.20
2023-01-23T18:13:20.019Z,1.40
2023-01-23T18:15:56.048Z,1.20
2023-01-23T18:18:28.930Z,1.30
2023-01-23T18:20:54.987Z,1.20
2023-01-23T18:23:20.066Z,1.30
2023-01-23T18:25:47.077Z,1.30
2023-01-23T18:28:19.779Z,1.30
2023-01-23T18:30:49.807Z,1.40
2023-01-23T18:33:41.280Z,1.30
2023-01-23T18:36:19.112Z,1.40
2023-01-23T18:39:00.216Z,1.40
2023-01-23T18:41:26.751Z,1.40
2023-01-23T18:44:01.076Z,1.40
2023-01-23T18:46:28.081Z,1.40
2023-01-23T18:48:53.369Z,1.30
2023-01-23T18:51:38.973Z,1.30
2023-01-23T18:54:16.736Z,1.30
2023-01-23T18:57:13.561Z,1.40
2023-01-23T18:59:49.497Z,1.30
2023-01-23T19:02:24.450Z,1.30
2023-01-23T19:04:55.015Z,1.40
2023-01-23T19:07:21.650Z,1.30
2023-01-23T19:09:53.288Z,1.30
2023-01-23T19:12:28.743Z,1.30
2023-01-23T19:15:06.576Z,1.30
2023-01-23T19:17:43.726Z,1.30
2023-01-23T19:20:26.555Z,1.30
2023-01-23T19:23:02.019Z,1.30
2023-01-23T19:25:33.914Z,1.20
2023-01-23T19:28:02.740Z,1.10
2023-01-23T19:30:30.587Z,1.10
2023-01-23T19:32:59.066Z,1.10
2023-01-23T19:35:23.864Z,1.10
2023-01-23T19:37:50.323Z,1.20
2023-01-23T19:40:16.954Z,1.20
2023-01-23T19:42:52.459Z,1.30
2023-01-23T19:45:21.508Z,1.20
2023-01-23T19:47:49.270Z,1.10
2023-01-23T19:50:17.046Z,1.20
2023-01-23T19:52:41.482Z,1.10
2023-01-23T19:55:07.514Z,1.30
2023-01-23T19:57:32.123Z,1.20
2023-01-23T19:59:56.846Z,1.30
2023-01-23T20:02:25.344Z,1.30
2023-01-23T20:04:51.503Z,1.30
2023-01-23T20:07:16.079Z,1.30
2023-01-23T20:09:41.090Z,1.30
2023-01-23T20:12:06.194Z,1.20
2023-01-23T20:14:30.941Z,1.20
2023-01-23T20:16:55.623Z,1.10
2023-01-23T20:19:20.503Z,1.10
2023-01-23T20:21:48.553Z,1.10
2023-01-23T20:24:13.622Z,1.10
2023-01-23T20:26:38.696Z,1.10
2023-01-23T20:29:04.208Z,1.20
2023-01-23T20:31:29.141Z,1.20
2023-01-23T20:33:54.623Z,1.30
2023-01-23T20:36:19.312Z,1.40
2023-01-23T20:38:45.631Z,1.40
2023-01-23T20:41:12.495Z,1.30
2023-01-23T20:43:37.052Z,1.30
2023-01-23T20:46:01.810Z,1.30
2023-01-23T20:48:26.358Z,1.30
2023-01-23T20:50:54.569Z,1.30
2023-01-23T20:53:31.363Z,1.20
2023-01-23T20:55:59.393Z,1.30
2023-01-23T20:58:41.582Z,1.20
2023-01-23T21:01:06.914Z,1.10
2023-01-23T21:03:31.429Z,1.00
2023-01-23T21:05:55.930Z,1.00
2023-01-23T21:08:21.369Z,1.00
2023-01-23T21:10:45.855Z,1.00
2023-01-23T21:13:15.737Z,1.00
2023-01-23T21:15:44.139Z,1.10
2023-01-23T21:18:08.554Z,1.00
2023-01-23T21:20:33.715Z,1.00
2023-01-23T21:22:58.381Z,1.10
2023-01-23T21:25:23.428Z,1.10
2023-01-23T21:27:48.011Z,1.10
2023-01-23T21:30:15.294Z,1.10
2023-01-23T21:32:40.085Z,1.10
2023-01-23T21:35:04.753Z,1.00
2023-01-23T21:37:29.153Z,0.90
2023-01-23T21:39:53.739Z,0.90
2023-01-23T21:42:18.136Z,0.80
2023-01-23T21:44:42.683Z,0.80
2023-01-23T21:47:09.006Z,0.80
2023-01-23T21:49:33.648Z,0.80
2023-01-23T21:51:58.359Z,0.90
2023-01-23T21:54:23.352Z,0.80
2023-01-23T21:56:47.769Z,0.80
2023-01-23T21:59:13.017Z,0.80
2023-01-23T22:01:37.757Z,0.90
2023-01-23T22:04:05.934Z,0.90
2023-01-23T22:06:30.698Z,0.80
2023-01-23T22:08:55.370Z,0.80
2023-01-23T22:11:19.742Z,0.80
2023-01-23T22:13:44.253Z,0.70
2023-01-23T22:16:09.706Z,0.70
2023-01-23T22:18:35.111Z,0.70
2023-01-23T22:21:03.263Z,0.70
2023-01-23T22:23:28.167Z,0.80
2023-01-23T22:25:56.458Z,0.80
2023-01-23T22:28:21.208Z,0.80
2023-01-23T22:30:45.723Z,0.80
2023-01-23T22:33:10.806Z,0.80
2023-01-23T22:35:39.196Z,0.90
2023-01-23T22:38:05.080Z,0.90
2023-01-23T22:40:29.550Z,0.90
2023-01-23T22:42:54.171Z,0.90
2023-01-23T22:45:18.680Z,0.80
2023-01-23T22:47:43.754Z,0.80
2023-01-23T22:50:08.792Z,0.80
2023-01-23T22:52:35.231Z,0.90
2023-01-23T22:55:01.584Z,0.80
2023-01-23T22:57:26.811Z,0.80
2023-01-23T22:59:51.241Z,0.90
2023-01-23T23:02:15.911Z,0.80
2023-01-23T23:04:40.386Z,0.80
2023-01-23T23:07:04.947Z,0.80
2023-01-23T23:09:29.814Z,0.90
2023-01-23T23:11:55.788Z,0.90
2023-01-23T23:14:20.965Z,0.80
2023-01-23T23:16:45.954Z,0.80
2023-01-23T23:19:11.890Z,0.80
2023-01-23T23:21:38.255Z,0.80
2023-01-23T23:24:03.924Z,0.80
2023-01-23T23:26:30.832Z,0.80
2023-01-23T23:28:57.114Z,0.80
2023-01-23T23:31:22.070Z,0.90
2023-01-23T23:33:47.503Z,0.90
2023-01-23T23:36:12.611Z,1.00
2023-01-23T23:38:37.103Z,0.90
2023-01-23T23:41:03.259Z,0.90
2023-01-23T23:43:28.782Z,0.90
2023-01-23T23:45:56.116Z,0.80
2023-01-23T23:48:21.063Z,0.80
2023-01-23T23:50:45.869Z,0.80
2023-01-23T23:53:10.528Z,0.80
2023-01-23T23:55:35.062Z,1.00
2023-01-23T23:58:00.783Z,1.00
